createdAt,value
2019-05-13T04:43:13.013Z,7.30
2019-05-13T04:45:44.026Z,8.40
2019-05-13T04:48:13.336Z,8.10
2019-05-13T04:50:43.290Z,7.90
2019-05-13T04:53:13.653Z,7.70
2019-05-13T04:55:44.371Z,7.60
2019-05-13T04:58:13.593Z,7.50
2019-05-13T05:01:23.743Z,7.50
2019-05-13T05:03:59.244Z,7.40
2019-05-13T05:06:38.090Z,7.60
2019-05-13T05:09:28.123Z,7.70
2019-05-13T05:12:42.491Z,7.70
2019-05-13T05:15:41.695Z,7.60
2019-05-13T05:18:42.090Z,7.70
2019-05-13T05:21:17.369Z,7.70
2019-05-13T05:24:32.308Z,7.90
2019-05-13T05:27:17.461Z,8.00
2019-05-13T05:30:48.599Z,8.20
2019-05-13T05:33:57.450Z,8.40
2019-05-13T05:36:41.470Z,8.60
2019-05-13T05:39:23.906Z,8.40
2019-05-13T05:41:56.375Z,8.60
2019-05-13T05:44:27.694Z,8.70
2019-05-13T05:47:02.173Z,8.70
2019-05-13T05:49:31.979Z,8.80
2019-05-13T05:52:06.273Z,9.00
2019-05-13T05:54:38.120Z,9.50
2019-05-13T05:57:11.882Z,9.70
2019-05-13T05:59:42.578Z,9.70
2019-05-13T06:02:12.337Z,10.00
2019-05-13T06:04:43.199Z,10.20
2019-05-13T06:07:14.220Z,10.20
2019-05-13T06:09:43.514Z,10.80
2019-05-13T06:12:13.495Z,11.30
2019-05-13T06:14:44.044Z,11.40
2019-05-13T06:17:13.223Z,11.60
2019-05-13T06:19:42.840Z,11.50
2019-05-13T06:22:12.409Z,11.30
2019-05-13T06:24:42.379Z,11.50
2019-05-13T06:27:12.111Z,11.80
2019-05-13T06:29:42.317Z,12.10
2019-05-13T06:32:21.476Z,12.00
2019-05-13T06:34:43.709Z,12.00
2019-05-13T06:37:12.977Z,12.00
2019-05-13T06:39:42.457Z,11.80
2019-05-13T06:42:13.291Z,12.00
2019-05-13T06:44:43.549Z,11.90
2019-05-13T06:47:12.869Z,11.70
2019-05-13T06:49:42.837Z,11.60
2019-05-13T06:52:12.692Z,10.90
2019-05-13T06:54:42.078Z,10.90
2019-05-13T06:57:13.472Z,10.60
2019-05-13T06:59:42.544Z,10.30
2019-05-13T07:02:12.673Z,10.30
2019-05-13T07:04:43.325Z,10.30
2019-05-13T07:07:17.146Z,10.20
2019-05-13T07:09:44.784Z,10.20
2019-05-13T07:12:14.060Z,10.20
2019-05-13T07:14:43.334Z,10.10
2019-05-13T07:17:12.657Z,10.30
2019-05-13T07:19:42.189Z,10.50
2019-05-13T07:22:11.731Z,10.50
2019-05-13T07:24:41.657Z,10.80
2019-05-13T07:27:12.293Z,10.80
2019-05-13T07:29:42.471Z,10.90
2019-05-13T07:32:12.153Z,11.10
2019-05-13T07:34:43.813Z,11.80
2019-05-13T07:37:13.239Z,13.00
2019-05-13T07:39:42.917Z,13.50
2019-05-13T07:42:12.511Z,13.60
2019-05-13T07:44:41.981Z,13.40
2019-05-13T07:47:11.744Z,13.20
2019-05-13T07:49:42.100Z,13.50
2019-05-13T07:52:14.643Z,14.60
2019-05-13T07:54:43.931Z,15.70
2019-05-13T07:57:13.193Z,16.70
2019-05-13T07:59:42.436Z,17.70
2019-05-13T08:02:12.380Z,17.70
2019-05-13T08:04:43.291Z,17.60
2019-05-13T08:07:12.787Z,17.20
2019-05-13T08:09:42.155Z,16.40
2019-05-13T08:12:14.347Z,15.80
2019-05-13T08:14:43.620Z,15.50
2019-05-13T08:17:13.219Z,15.30
2019-05-13T08:19:42.976Z,14.60
2019-05-13T08:22:12.300Z,14.50
2019-05-13T08:24:42.485Z,14.20
2019-05-13T08:27:12.084Z,13.70
2019-05-13T08:29:42.077Z,13.80
2019-05-13T08:32:11.967Z,14.00
2019-05-13T08:34:41.912Z,14.50
2019-05-13T08:37:11.627Z,15.20
2019-05-13T08:39:41.629Z,15.30
2019-05-13T08:42:15.817Z,15.50
2019-05-13T08:44:42.271Z,15.50
2019-05-13T08:47:12.035Z,15.90
2019-05-13T08:49:41.698Z,16.10
2019-05-13T08:52:12.136Z,16.30
2019-05-13T08:54:42.103Z,17.00
2019-05-13T08:57:12.061Z,18.00
2019-05-13T08:59:42.218Z,19.60
2019-05-13T09:02:11.886Z,19.90
2019-05-13T09:04:42.252Z,18.60
2019-05-13T09:07:12.261Z,17.90
2019-05-13T09:09:42.174Z,17.20
2019-05-13T09:12:27.265Z,16.50
2019-05-13T09:14:43.369Z,15.90
2019-05-13T09:17:12.992Z,15.70
2019-05-13T09:19:42.252Z,15.50
2019-05-13T09:24:42.731Z,17.30
2019-05-13T09:27:12.557Z,19.00
2019-05-13T09:32:12.808Z,20.70
2019-05-13T09:34:42.481Z,19.80
2019-05-13T09:37:12.519Z,18.20
2019-05-13T09:39:41.843Z,17.50
2019-05-13T09:42:12.674Z,16.80
2019-05-13T09:44:42.190Z,16.00
2019-05-13T09:47:12.404Z,15.90
2019-05-13T09:49:49.815Z,15.90
2019-05-13T09:52:19.140Z,16.00
2019-05-13T09:54:48.471Z,16.40
2019-05-13T09:57:17.777Z,16.00
2019-05-13T09:59:47.073Z,16.10
2019-05-13T10:02:16.576Z,16.30
2019-05-13T10:04:45.860Z,16.90
2019-05-13T10:07:15.054Z,17.80
2019-05-13T10:09:48.237Z,18.40
2019-05-13T10:12:15.453Z,18.40
2019-05-13T10:14:44.925Z,18.50
2019-05-13T10:17:14.103Z,19.60
2019-05-13T10:19:43.401Z,19.00
2019-05-13T10:22:12.820Z,17.30
2019-05-13T10:24:42.864Z,17.70
2019-05-13T10:27:18.862Z,18.60
2019-05-13T10:29:46.394Z,19.50
2019-05-13T10:32:16.127Z,19.40
2019-05-13T10:34:46.752Z,19.60
2019-05-13T10:37:16.026Z,19.60
2019-05-13T10:39:45.254Z,20.00
2019-05-13T10:42:14.667Z,18.90
2019-05-13T10:44:43.992Z,18.10
2019-05-13T10:47:13.747Z,17.90
2019-05-13T10:49:43.051Z,17.50
2019-05-13T10:52:12.580Z,17.60
2019-05-13T10:54:42.356Z,18.10
2019-05-13T10:57:13.686Z,18.30
2019-05-13T10:59:42.743Z,18.60
2019-05-13T11:02:13.812Z,18.80
2019-05-13T11:04:44.900Z,19.00
2019-05-13T11:07:14.315Z,19.00
2019-05-13T11:09:43.680Z,19.10
2019-05-13T11:12:14.052Z,19.30
2019-05-13T11:14:46.649Z,18.90
2019-05-13T11:17:14.252Z,17.80
2019-05-13T11:19:43.567Z,18.10
2019-05-13T11:22:12.797Z,18.10
2019-05-13T11:24:43.168Z,17.90
2019-05-13T11:27:13.032Z,17.90
2019-05-13T11:29:42.325Z,17.40
2019-05-13T11:32:13.557Z,16.90
2019-05-13T11:34:43.140Z,16.70
2019-05-13T11:37:12.869Z,17.00
2019-05-13T11:39:42.793Z,17.30
2019-05-13T11:42:13.629Z,17.20
2019-05-13T11:44:43.649Z,16.40
2019-05-13T11:47:12.964Z,15.50
2019-05-13T11:49:42.645Z,15.10
2019-05-13T11:52:12.599Z,15.80
2019-05-13T11:54:42.475Z,16.30
2019-05-13T11:57:12.868Z,16.40
2019-05-13T11:59:43.827Z,16.00
2019-05-13T12:02:14.560Z,15.70
2019-05-13T12:04:44.212Z,15.60
2019-05-13T12:07:13.845Z,15.50
2019-05-13T12:09:43.262Z,15.50
2019-05-13T12:12:13.888Z,15.40
2019-05-13T12:15:04.886Z,15.50
2019-05-13T12:17:17.559Z,16.00
2019-05-13T12:19:46.807Z,16.30
2019-05-13T12:22:16.079Z,16.90
2019-05-13T12:24:45.308Z,17.00
2019-05-13T12:27:14.651Z,16.70
2019-05-13T12:29:44.110Z,16.70
2019-05-13T12:32:13.788Z,17.00
2019-05-13T12:34:45.777Z,16.70
2019-05-13T12:37:14.635Z,16.30
2019-05-13T12:39:44.238Z,15.80
2019-05-13T12:42:13.784Z,15.60
2019-05-13T12:45:00.605Z,15.50
2019-05-13T12:47:14.131Z,15.50
2019-05-13T12:49:44.037Z,16.00
2019-05-13T12:52:14.142Z,16.30
2019-05-13T12:54:43.988Z,16.20
2019-05-13T12:57:16.125Z,15.80
2019-05-13T12:59:45.134Z,15.50
2019-05-13T13:02:14.703Z,15.00
2019-05-13T13:05:07.912Z,14.80
2019-05-13T13:07:15.177Z,15.30
2019-05-13T13:09:44.377Z,15.80
2019-05-13T13:12:13.911Z,16.20
2019-05-13T13:14:44.432Z,16.70
2019-05-13T13:17:14.234Z,16.40
2019-05-13T13:19:43.529Z,16.40
2019-05-13T13:22:13.765Z,16.50
2019-05-13T13:24:51.273Z,16.30
2019-05-13T13:27:21.034Z,16.20
2019-05-13T13:29:45.329Z,16.10
2019-05-13T13:32:14.519Z,16.40
2019-05-13T13:34:44.951Z,16.50
2019-05-13T13:37:14.313Z,16.60
2019-05-13T13:39:44.127Z,16.60
2019-05-13T13:42:13.474Z,16.70
2019-05-13T13:44:43.219Z,16.60
2019-05-13T13:47:14.705Z,16.40
2019-05-13T13:49:44.052Z,16.70
2019-05-13T13:52:16.082Z,16.50
2019-05-13T13:54:44.957Z,16.30
2019-05-13T13:57:14.263Z,16.40
2019-05-13T14:00:14.966Z,16.50
2019-05-13T14:02:14.801Z,16.30
2019-05-13T14:04:44.076Z,16.30
2019-05-13T14:06:25.160Z,16.00
2019-05-13T14:07:00.599Z,19.90
2019-05-13T14:07:30.088Z,16.40
2019-05-13T14:09:45.033Z,16.70
2019-05-13T14:12:16.643Z,16.90
2019-05-13T14:14:45.967Z,17.20
2019-05-13T14:17:15.101Z,17.10
2019-05-13T14:19:44.376Z,16.80
2019-05-13T14:22:13.893Z,16.80
2019-05-13T14:24:43.378Z,16.80
2019-05-13T14:27:12.632Z,16.90
2019-05-13T14:29:49.216Z,16.90
2019-05-13T14:32:14.470Z,16.50
2019-05-13T14:34:43.821Z,16.40
2019-05-13T14:37:13.141Z,16.20
2019-05-13T14:39:43.065Z,16.20
2019-05-13T14:42:12.404Z,15.80
2019-05-13T14:44:42.256Z,15.90
2019-05-13T14:47:12.543Z,16.10
2019-05-13T14:49:42.540Z,16.60
2019-05-13T14:52:32.293Z,16.90
2019-05-13T14:55:02.300Z,16.60
2019-05-13T14:57:32.427Z,16.50
2019-05-13T15:00:02.578Z,16.20
2019-05-13T15:02:35.820Z,16.20
2019-05-13T15:05:03.796Z,16.20
2019-05-13T15:07:33.241Z,16.10
2019-05-13T15:10:04.861Z,16.10
2019-05-13T15:12:34.222Z,16.10
2019-05-13T15:15:03.610Z,16.10
2019-05-13T15:17:34.839Z,16.20
2019-05-13T15:20:05.421Z,16.20
2019-05-13T15:22:34.667Z,16.30
2019-05-13T15:25:04.425Z,16.30
2019-05-13T15:27:33.818Z,16.30
2019-05-13T15:30:16.733Z,16.00
2019-05-13T15:32:34.089Z,15.80
2019-05-13T15:35:03.370Z,15.60
2019-05-13T15:37:32.731Z,15.60
2019-05-13T15:40:02.408Z,15.70
2019-05-13T15:42:32.419Z,15.90
2019-05-13T15:45:02.622Z,15.90
2019-05-13T15:47:32.097Z,15.70
2019-05-13T15:50:02.433Z,15.50
2019-05-13T15:52:32.477Z,15.30
2019-05-13T15:55:01.891Z,15.00
2019-05-13T15:57:31.902Z,14.80
2019-05-13T16:00:02.046Z,14.80
2019-05-13T16:02:32.017Z,14.60
2019-05-13T16:05:04.692Z,14.70
2019-05-13T16:07:32.615Z,14.80
2019-05-13T16:10:02.122Z,14.80
2019-05-13T16:12:33.014Z,14.70
2019-05-13T16:15:03.476Z,14.80
2019-05-13T16:17:53.613Z,14.90
2019-05-13T16:20:04.552Z,15.00
2019-05-13T16:22:33.818Z,15.10
2019-05-13T16:25:03.059Z,15.00
2019-05-13T16:27:32.974Z,14.90
2019-05-13T16:30:02.632Z,14.70
2019-05-13T16:32:32.363Z,14.60
2019-05-13T16:35:02.788Z,14.50
2019-05-13T16:37:35.844Z,14.30
2019-05-13T16:40:06.926Z,14.30
2019-05-13T16:42:36.316Z,14.30
2019-05-13T16:45:07.674Z,14.50
2019-05-13T16:47:37.041Z,14.30
2019-05-13T16:50:08.218Z,14.40
2019-05-13T16:52:37.496Z,14.50
2019-05-13T16:55:07.583Z,14.30
2019-05-13T16:57:37.286Z,14.10
2019-05-13T17:00:08.072Z,14.00
2019-05-13T17:02:37.591Z,14.10
2019-05-13T17:05:07.634Z,13.90
2019-05-13T17:07:36.907Z,13.70
2019-05-13T17:10:07.952Z,13.70
2019-05-13T17:12:37.381Z,13.60
2019-05-13T17:15:07.785Z,13.60
2019-05-13T17:17:37.006Z,13.70
2019-05-13T17:20:07.235Z,13.90
2019-05-13T17:22:36.518Z,13.90
2019-05-13T17:25:06.136Z,13.70
2019-05-13T17:27:35.372Z,13.80
2019-05-13T17:30:06.078Z,13.70
2019-05-13T17:32:35.519Z,13.60
2019-05-13T17:35:05.881Z,13.50
2019-05-13T17:37:36.365Z,13.50
2019-05-13T17:40:05.976Z,13.50
2019-05-13T17:42:35.175Z,13.50
2019-05-13T17:45:05.300Z,13.40
2019-05-13T17:47:34.895Z,13.50
2019-05-13T17:50:07.163Z,13.40
2019-05-13T17:52:37.239Z,13.30
2019-05-13T17:55:06.979Z,13.30
2019-05-13T17:57:36.984Z,13.40
2019-05-13T18:00:08.157Z,13.20
2019-05-13T18:02:37.905Z,13.10
2019-05-13T18:05:07.325Z,13.10
2019-05-13T18:07:36.588Z,13.10
2019-05-13T18:10:06.823Z,13.00
2019-05-13T18:12:36.173Z,12.90
2019-05-13T18:15:06.995Z,12.80
2019-05-13T18:17:36.522Z,12.80
2019-05-13T18:20:07.232Z,12.80
2019-05-13T18:22:36.573Z,12.50
2019-05-13T18:25:06.288Z,12.50
2019-05-13T18:27:35.619Z,12.30
2019-05-13T18:30:06.015Z,12.20
2019-05-13T18:32:35.604Z,12.20
2019-05-13T18:35:05.504Z,12.10
2019-05-13T18:37:34.878Z,11.80
2019-05-13T18:40:06.572Z,11.50
2019-05-13T18:42:36.367Z,11.30
2019-05-13T18:45:06.446Z,11.00
2019-05-13T18:47:36.071Z,10.80
2019-05-13T18:50:11.815Z,10.70
2019-05-13T18:52:42.073Z,10.50
2019-05-13T18:55:12.677Z,10.30
2019-05-13T18:57:41.977Z,10.20
2019-05-13T19:00:11.686Z,10.00
2019-05-13T19:02:41.621Z,9.90
2019-05-13T19:05:12.052Z,9.90
2019-05-13T19:07:41.953Z,9.80
2019-05-13T19:10:11.922Z,9.70
2019-05-13T19:12:42.298Z,9.60
2019-05-13T19:15:13.539Z,9.50
2019-05-13T19:17:42.914Z,9.40
2019-05-13T19:20:13.045Z,9.30
2019-05-13T19:22:42.315Z,9.20
2019-05-13T19:25:12.157Z,9.10
2019-05-13T19:27:41.983Z,9.10
2019-05-13T19:30:12.202Z,9.00
2019-05-13T19:32:42.346Z,9.00
2019-05-13T19:35:13.038Z,8.90
2019-05-13T19:37:42.738Z,8.90
2019-05-13T19:40:13.319Z,8.90
2019-05-13T19:42:42.938Z,8.90
2019-05-13T19:45:12.816Z,8.90
2019-05-13T19:47:42.150Z,8.90
2019-05-13T19:50:11.371Z,8.90
2019-05-13T19:52:41.465Z,8.90
2019-05-13T19:55:12.035Z,8.90
2019-05-13T19:57:42.581Z,8.90
2019-05-13T20:00:14.265Z,9.00
2019-05-13T20:02:43.799Z,9.00
2019-05-13T20:05:12.992Z,9.00
2019-05-13T20:07:42.261Z,9.10
2019-05-13T20:10:14.492Z,9.00
2019-05-13T20:12:43.924Z,9.00
2019-05-13T20:15:13.303Z,9.10
2019-05-13T20:17:42.543Z,9.00
2019-05-13T20:20:12.548Z,9.00
2019-05-13T20:22:42.434Z,9.00
2019-05-13T20:25:13.427Z,9.00
2019-05-13T20:27:42.678Z,8.90
2019-05-13T20:30:12.433Z,8.90
2019-05-13T20:32:41.756Z,8.90
2019-05-13T20:35:11.631Z,8.90
2019-05-13T20:37:41.024Z,8.90
2019-05-13T20:40:22.061Z,8.90
2019-05-13T20:42:51.602Z,8.90
2019-05-13T20:45:22.404Z,8.80
2019-05-13T20:47:51.888Z,8.70
2019-05-13T20:50:21.733Z,8.70
2019-05-13T20:52:51.723Z,8.70
2019-05-13T20:55:22.060Z,8.70
2019-05-13T20:57:53.073Z,8.60
2019-05-13T21:00:22.724Z,8.60
2019-05-13T21:02:52.033Z,8.50
2019-05-13T21:05:21.923Z,8.50
2019-05-13T21:07:51.676Z,8.50
2019-05-13T21:10:21.357Z,8.40
2019-05-13T21:12:51.339Z,8.40
2019-05-13T21:15:21.208Z,8.30
2019-05-13T21:17:51.594Z,8.30
2019-05-13T21:20:25.068Z,8.30
2019-05-13T21:22:52.405Z,8.30
2019-05-13T21:25:21.607Z,8.30
2019-05-13T21:27:52.674Z,8.20
2019-05-13T21:30:23.546Z,8.20
2019-05-13T21:32:52.764Z,8.10
2019-05-13T21:35:22.020Z,8.10
2019-05-13T21:37:51.323Z,8.00
2019-05-13T21:40:21.689Z,8.00
2019-05-13T21:42:52.608Z,8.00
2019-05-13T21:45:24.323Z,7.90
2019-05-13T21:47:53.683Z,7.80
2019-05-13T21:50:33.211Z,7.80
2019-05-13T21:52:54.011Z,7.70
2019-05-13T21:55:25.007Z,7.70
2019-05-13T21:57:54.341Z,7.60
